Time;durP1;ratioP1;P1;durP2;ratioP2;P2;SDS_P1;SDS_P2;PMS_P1;PMS_P2;Temp;Humidity;BMP_temperature;BMP_pressure;BME280_temperature;BME280_humidity;BME280_pressure;Samples;Min_cycle;Max_cycle;Signal;HPM_P1;HPM_P2
2022/03/28 00:00:24;;;;;;;17.65;9.07;;;;;;;4.79;100.00;101836.44;5276645;28;20051;-76
2022/03/28 00:02:54;;;;;;;20.50;8.98;;;;;;;4.82;100.00;101832.16;5278099;28;20085;-77
2022/03/28 00:05:24;;;;;;;18.35;8.60;;;;;;;4.86;100.00;101822.69;5278192;28;20031;-77
2022/03/28 00:07:55;;;;;;;17.85;8.40;;;;;;;4.92;100.00;101828.78;5260083;28;20023;-77
2022/03/28 00:10:26;;;;;;;18.23;8.70;;;;;;;4.93;100.00;101814.97;5260876;28;20032;-77
2022/03/28 00:12:56;;;;;;;16.38;7.85;;;;;;;4.88;100.00;101820.97;5276264;28;20024;-77
2022/03/28 00:15:26;;;;;;;16.90;8.20;;;;;;;4.67;100.00;101826.00;5277639;28;20096;-77
2022/03/28 00:17:57;;;;;;;16.25;7.90;;;;;;;4.38;100.00;101817.97;5278313;28;20039;-78
2022/03/28 00:20:27;;;;;;;22.88;8.75;;;;;;;4.47;100.00;101822.38;5276559;28;20027;-76
2022/03/28 00:22:57;;;;;;;17.77;8.00;;;;;;;4.46;100.00;101818.06;5275293;28;20031;-77
2022/03/28 00:25:28;;;;;;;18.60;8.02;;;;;;;4.43;100.00;101818.88;5273886;28;20024;-77
2022/03/28 00:27:58;;;;;;;16.77;8.02;;;;;;;4.36;100.00;101814.50;5244928;28;20019;-77
2022/03/28 00:30:28;;;;;;;17.95;8.30;;;;;;;4.23;100.00;101812.66;5250639;28;20044;-77
2022/03/28 00:32:59;;;;;;;15.45;7.88;;;;;;;4.29;100.00;101807.53;5266844;28;20024;-77
2022/03/28 00:35:29;;;;;;;16.52;7.55;;;;;;;4.37;100.00;101805.00;5275910;28;20462;-77
2022/03/28 00:38:00;;;;;;;18.73;8.23;;;;;;;4.16;100.00;101810.84;5268472;28;20035;-77
2022/03/28 00:40:32;;;;;;;17.85;7.68;;;;;;;4.15;100.00;101806.53;5272661;28;20023;-76
2022/03/28 00:43:05;;;;;;;18.55;8.35;;;;;;;4.32;100.00;101802.38;5279977;28;20024;-77
2022/03/28 00:45:37;;;;;;;17.13;7.60;;;;;;;4.29;100.00;101798.91;5278685;28;20028;-77
2022/03/28 00:48:10;;;;;;;15.52;7.85;;;;;;;4.23;100.00;101798.84;5258530;28;20024;-77
2022/03/28 00:50:41;;;;;;;16.38;8.00;;;;;;;4.18;100.00;101790.16;5265221;28;20034;-76
2022/03/28 00:53:13;;;;;;;14.85;7.88;;;;;;;4.19;100.00;101789.31;5279261;28;20024;-77
2022/03/28 00:55:45;;;;;;;18.90;8.50;;;;;;;4.15;100.00;101788.41;5282071;28;20024;-77
2022/03/28 00:58:15;;;;;;;17.15;8.15;;;;;;;4.11;100.00;101786.66;5254750;28;20024;-77
2022/03/28 01:00:46;;;;;;;17.02;8.38;;;;;;;4.15;100.00;101783.25;5261193;28;20391;-77
2022/03/28 01:03:16;;;;;;;15.70;7.95;;;;;;;4.23;100.00;101776.44;5278637;28;20037;-77
2022/03/28 01:05:47;;;;;;;18.65;8.63;;;;;;;4.21;100.00;101774.69;5281581;28;20111;-77
2022/03/28 01:08:17;;;;;;;14.77;7.65;;;;;;;4.07;100.00;101776.25;5276865;28;20610;-78
2022/03/28 01:10:52;;;;;;;16.77;8.02;;;;;;;4.08;100.00;101775.41;5262165;28;20023;-77
2022/03/28 01:13:23;;;;;;;17.15;7.85;;;;;;;4.07;100.00;101773.66;5280587;28;20038;-76
2022/03/28 01:15:54;;;;;;;15.75;7.90;;;;;;;4.01;100.00;101773.63;5281107;28;20059;-77
2022/03/28 01:18:24;;;;;;;18.48;8.73;;;;;;;4.10;100.00;101769.41;5281935;28;20063;-77
2022/03/28 01:20:58;;;;;;;18.35;8.45;;;;;;;4.18;100.00;101765.19;5278837;28;20031;-77
2022/03/28 01:23:28;;;;;;;18.38;8.50;;;;;;;4.20;100.00;101762.59;5281155;28;20068;-77
2022/03/28 01:25:59;;;;;;;18.60;8.80;;;;;;;4.06;100.00;101757.31;5262111;28;20504;-76
2022/03/28 01:28:29;;;;;;;20.20;8.65;;;;;;;4.07;100.00;101751.28;5273919;28;20099;-77
2022/03/28 01:30:59;;;;;;;17.67;8.65;;;;;;;4.18;100.00;101741.91;5277043;28;20158;-77
2022/03/28 01:33:29;;;;;;;19.52;8.70;;;;;;;4.39;100.00;101755.00;5262700;28;20015;-77
2022/03/28 01:36:00;;;;;;;15.70;8.38;;;;;;;4.35;100.00;101761.03;5278119;28;20529;-77
2022/03/28 01:38:30;;;;;;;14.65;7.30;;;;;;;4.25;100.00;101760.91;5274967;28;20400;-77
2022/03/28 01:41:00;;;;;;;15.77;7.85;;;;;;;4.06;100.00;101746.97;5279665;28;20110;-76
2022/03/28 01:43:30;;;;;;;17.17;8.30;;;;;;;4.04;100.00;101743.50;5278342;28;20031;-77
2022/03/28 01:46:01;;;;;;;18.30;8.07;;;;;;;4.07;100.00;101737.47;5279501;28;20023;-78
2022/03/28 01:48:32;;;;;;;15.48;7.57;;;;;;;3.93;100.00;101739.06;5277288;28;20035;-77
2022/03/28 01:51:02;;;;;;;17.48;7.90;;;;;;;3.70;100.00;101733.66;5255938;28;20025;-76
2022/03/28 01:53:32;;;;;;;16.88;7.95;;;;;;;3.60;100.00;101733.56;5257017;28;20084;-76
2022/03/28 01:56:03;;;;;;;15.95;7.60;;;;;;;3.42;100.00;101730.78;5256890;28;20028;-77
2022/03/28 01:58:33;;;;;;;16.42;7.30;;;;;;;3.32;100.00;101730.63;5276490;28;20086;-77
2022/03/28 02:01:03;;;;;;;15.30;7.72;;;;;;;3.22;100.00;101728.78;5261981;28;20084;-77
2022/03/28 02:03:34;;;;;;;17.65;8.27;;;;;;;3.23;100.00;101731.38;5276830;28;20038;-77
2022/03/28 02:06:05;;;;;;;14.10;7.50;;;;;;;3.31;100.00;101726.31;5276352;28;20114;-77
2022/03/28 02:08:35;;;;;;;16.35;7.20;;;;;;;3.30;100.00;101721.97;5277791;28;20031;-77
2022/03/28 02:11:06;;;;;;;16.45;7.35;;;;;;;3.55;100.00;101716.25;5275417;28;20020;-77
2022/03/28 02:13:36;;;;;;;18.67;7.65;;;;;;;3.42;100.00;101716.97;5275473;28;20050;-77
2022/03/28 02:16:07;;;;;;;17.23;7.78;;;;;;;3.58;100.00;101712.00;5261277;28;20508;-76
2022/03/28 02:18:40;;;;;;;17.63;8.45;;;;;;;3.56;100.00;101702.50;5249066;28;20374;-77
2022/03/28 02:21:10;;;;;;;23.20;9.48;;;;;;;3.63;100.00;101708.59;5274767;28;20093;-77
2022/03/28 02:23:40;;;;;;;18.13;8.77;;;;;;;3.66;100.00;101703.47;5278020;28;20027;-77
2022/03/28 02:26:14;;;;;;;22.02;9.43;;;;;;;3.60;100.00;101698.22;5256505;28;20115;-77
2022/03/28 02:28:44;;;;;;;21.40;9.30;;;;;;;3.70;100.00;101696.59;5273870;28;20027;-76
2022/03/28 02:31:14;;;;;;;19.30;8.57;;;;;;;3.70;100.00;101691.44;5277231;28;20023;-77
2022/03/28 02:33:44;;;;;;;19.27;8.82;;;;;;;3.74;100.00;101683.72;5274625;28;20469;-77
2022/03/28 02:36:15;;;;;;;19.13;7.75;;;;;;;3.68;100.00;101691.44;5276533;28;20032;-76
2022/03/28 02:38:45;;;;;;;17.27;7.80;;;;;;;3.53;100.00;101690.41;5257848;28;20046;-76
2022/03/28 02:41:16;;;;;;;18.15;8.25;;;;;;;3.40;100.00;101679.91;5275046;28;20028;-76
2022/03/28 02:43:46;;;;;;;14.75;7.13;;;;;;;3.44;100.00;101689.44;5276421;28;20027;-77
2022/03/28 02:46:17;;;;;;;16.27;7.85;;;;;;;3.37;100.00;101677.31;5274503;28;20039;-76
2022/03/28 02:48:47;;;;;;;15.93;7.95;;;;;;;3.42;100.00;101684.25;5276022;28;20030;-76
2022/03/28 02:51:17;;;;;;;19.65;8.20;;;;;;;3.16;100.00;101687.41;5273312;28;20031;-77
2022/03/28 02:53:47;;;;;;;18.92;8.80;;;;;;;3.16;100.00;101679.66;5252597;28;20020;-76
2022/03/28 02:56:18;;;;;;;18.52;8.85;;;;;;;2.87;100.00;101674.09;5254402;28;21479;-76
2022/03/28 02:58:48;;;;;;;20.40;8.43;;;;;;;2.89;100.00;101669.81;5269364;28;20028;-76
2022/03/28 03:01:19;;;;;;;21.02;8.30;;;;;;;2.89;100.00;101664.66;5256999;28;20031;-76
2022/03/28 03:03:49;;;;;;;19.88;8.55;;;;;;;2.94;100.00;101665.63;5277649;28;20035;-77
2022/03/28 03:06:19;;;;;;;21.92;8.38;;;;;;;3.00;100.00;101655.34;5280352;28;20031;-77
2022/03/28 03:08:50;;;;;;;18.60;8.65;;;;;;;3.04;100.00;101658.84;5279819;28;20250;-77
2022/03/28 03:11:20;;;;;;;21.38;9.02;;;;;;;3.03;100.00;101659.69;5259461;28;20078;-77
2022/03/28 03:13:53;;;;;;;20.50;9.88;;;;;;;3.17;100.00;101647.81;5261750;28;20465;-77
2022/03/28 03:16:23;;;;;;;19.95;8.73;;;;;;;3.10;100.00;101659.78;5279572;28;20024;-77
2022/03/28 03:18:54;;;;;;;20.48;8.45;;;;;;;3.25;100.00;101653.91;5280078;28;20028;-77
2022/03/28 03:21:25;;;;;;;21.08;9.25;;;;;;;3.18;100.00;101652.97;5250249;28;20051;-76
2022/03/28 03:23:55;;;;;;;24.02;9.50;;;;;;;3.38;100.00;101654.06;5254854;28;20543;-77
2022/03/28 03:26:25;;;;;;;22.40;9.52;;;;;;;3.27;100.00;101644.47;5258565;28;20031;-77
2022/03/28 03:28:58;;;;;;;20.90;9.05;;;;;;;3.13;100.00;101646.03;5279025;28;20051;-77
2022/03/28 03:31:28;;;;;;;19.85;9.35;;;;;;;3.12;100.00;101647.75;5279412;28;20023;-77
2022/03/28 03:33:59;;;;;;;22.25;9.65;;;;;;;3.10;100.00;101648.56;5255726;28;20267;-77
2022/03/28 03:36:29;;;;;;;25.95;9.95;;;;;;;3.17;100.00;101635.75;5279785;28;20102;-77
2022/03/28 03:39:00;;;;;;;22.40;10.00;;;;;;;3.23;100.00;101642.72;5274629;28;20115;-76
2022/03/28 03:41:30;;;;;;;24.90;9.30;;;;;;;3.01;100.00;101643.31;5277149;28;20032;-77
2022/03/28 03:44:00;;;;;;;21.27;9.40;;;;;;;2.86;100.00;101645.72;5261903;28;20031;-77
2022/03/28 03:46:31;;;;;;;17.88;8.80;;;;;;;2.83;100.00;101646.53;5258290;28;20020;-77
2022/03/28 03:49:01;;;;;;;19.13;9.15;;;;;;;2.85;100.00;101641.41;5260541;28;20020;-76
2022/03/28 03:51:31;;;;;;;20.52;9.07;;;;;;;2.86;100.00;101637.97;5271400;28;20019;-77
2022/03/28 03:54:02;;;;;;;21.52;9.73;;;;;;;2.72;100.00;101648.09;5254701;28;20473;-77
2022/03/28 03:56:32;;;;;;;20.38;8.77;;;;;;;2.64;100.00;101643.69;5254809;28;20388;-76
2022/03/28 03:59:02;;;;;;;20.95;9.35;;;;;;;2.73;100.00;101643.81;5272715;28;20057;-76
2022/03/28 04:01:33;;;;;;;20.40;8.95;;;;;;;2.59;100.00;101640.19;5277325;28;20020;-77
2022/03/28 04:04:03;;;;;;;20.45;8.40;;;;;;;2.82;100.00;101636.22;5263167;28;20020;-76
2022/03/28 04:06:34;;;;;;;21.33;9.45;;;;;;;2.94;100.00;101626.88;5278307;28;20028;-77
2022/03/28 04:09:04;;;;;;;22.60;9.40;;;;;;;2.97;100.00;101623.47;5261605;28;20024;-76
2022/03/28 04:11:34;;;;;;;21.67;9.50;;;;;;;3.07;100.00;101627.88;5280710;28;20035;-76
2022/03/28 04:14:04;;;;;;;20.30;9.30;;;;;;;3.04;100.00;101622.69;5259196;28;20023;-77
2022/03/28 04:16:35;;;;;;;21.13;9.13;;;;;;;2.96;100.00;101627.78;5281650;28;20024;-77
2022/03/28 04:19:05;;;;;;;19.83;9.73;;;;;;;3.03;100.00;101626.13;5285528;28;20489;-76
2022/03/28 04:21:35;;;;;;;22.60;9.77;;;;;;;3.02;100.00;101617.50;5281099;28;20028;-77
2022/03/28 04:24:05;;;;;;;21.52;9.80;;;;;;;2.91;100.00;101619.13;5276024;28;20277;-76
2022/03/28 04:26:36;;;;;;;21.70;9.48;;;;;;;2.89;100.00;101614.78;5259414;28;20034;-76
2022/03/28 04:29:06;;;;;;;19.98;8.63;;;;;;;3.00;100.00;101608.03;5281403;28;20012;-76
2022/03/28 04:31:40;;;;;;;23.40;8.95;;;;;;;3.01;100.00;101607.19;5267219;28;20042;-77
2022/03/28 04:34:10;;;;;;;17.90;8.27;;;;;;;2.77;100.00;101612.91;5277017;28;20439;-77
2022/03/28 04:36:41;;;;;;;16.42;8.63;;;;;;;2.76;100.00;101608.59;5283441;28;20053;-77
2022/03/28 04:39:12;;;;;;;18.73;8.63;;;;;;;2.67;100.00;101602.47;5278047;28;20035;-77
2022/03/28 04:41:42;;;;;;;17.38;8.00;;;;;;;2.61;100.00;101600.66;5280294;28;20500;-77
2022/03/28 04:44:12;;;;;;;16.55;8.25;;;;;;;2.54;100.00;101587.66;5284001;28;20023;-75
2022/03/28 04:46:43;;;;;;;20.20;8.13;;;;;;;2.42;100.00;101601.28;5262184;28;20074;-75
2022/03/28 04:49:14;;;;;;;19.35;8.32;;;;;;;2.47;100.00;101591.88;5274282;28;20028;-75
2022/03/28 04:51:44;;;;;;;17.38;7.78;;;;;;;2.35;100.00;101594.28;5274932;28;20099;-73
2022/03/28 04:54:14;;;;;;;17.80;7.68;;;;;;;2.49;100.00;101600.50;5272650;28;20120;-75
2022/03/28 04:56:45;;;;;;;18.52;7.50;;;;;;;2.49;100.00;101591.91;5277331;28;20366;-74
2022/03/28 04:59:15;;;;;;;15.60;7.80;;;;;;;2.36;100.00;101597.75;5272442;28;20366;-75
2022/03/28 05:01:45;;;;;;;24.20;7.82;;;;;;;2.28;100.00;101609.66;5274962;28;20496;-74
2022/03/28 05:04:16;;;;;;;19.48;8.38;;;;;;;2.21;100.00;101603.56;5277056;28;20028;-75
2022/03/28 05:06:46;;;;;;;19.60;8.70;;;;;;;2.31;100.00;101591.66;5278134;28;20024;-74
2022/03/28 05:09:16;;;;;;;24.17;8.80;;;;;;;2.42;100.00;101590.06;5274256;28;20027;-76
2022/03/28 05:11:47;;;;;;;21.27;8.80;;;;;;;2.44;100.00;101591.84;5276094;28;20035;-76
2022/03/28 05:14:18;;;;;;;23.27;9.05;;;;;;;2.45;100.00;101590.13;5260452;28;20023;-77
2022/03/28 05:16:49;;;;;;;24.40;9.73;;;;;;;2.65;100.00;101588.69;5278474;28;20531;-76
2022/03/28 05:19:19;;;;;;;21.80;9.85;;;;;;;2.55;100.00;101582.53;5275302;28;20168;-77
2022/03/28 05:21:49;;;;;;;25.65;10.32;;;;;;;2.89;100.00;101588.97;5274262;28;20143;-75
2022/03/28 05:24:21;;;;;;;24.23;10.27;;;;;;;2.82;100.00;101582.84;5272819;28;20035;-76
2022/03/28 05:26:51;;;;;;;24.33;10.07;;;;;;;2.60;100.00;101586.03;5270354;28;20401;-76
2022/03/28 05:29:24;;;;;;;25.13;10.55;;;;;;;2.71;100.00;101578.41;5273126;28;20031;-75
2022/03/28 05:31:54;;;;;;;26.50;9.68;;;;;;;2.63;100.00;101580.03;5280164;28;20511;-76
2022/03/28 05:34:24;;;;;;;24.48;10.05;;;;;;;2.63;100.00;101574.88;5261326;28;20032;-76
2022/03/28 05:36:55;;;;;;;31.13;10.93;;;;;;;2.63;100.00;101575.75;5274132;28;20214;-76
2022/03/28 05:39:26;;;;;;;30.73;11.82;;;;;;;2.63;100.00;101575.75;5279053;28;20433;-76
2022/03/28 05:41:56;;;;;;;32.13;11.93;;;;;;;2.79;100.00;101576.78;5278311;28;20404;-74
2022/03/28 05:44:27;;;;;;;32.97;14.15;;;;;;;3.23;100.00;101567.81;5278182;28;20023;-76
2022/03/28 05:46:58;;;;;;;23.77;11.93;;;;;;;3.12;100.00;101566.81;5274651;28;20109;-76
2022/03/28 05:49:28;;;;;;;21.92;10.25;;;;;;;2.85;100.00;101569.13;5276310;28;20421;-76
2022/03/28 05:51:58;;;;;;;20.88;10.77;;;;;;;2.86;100.00;101563.13;5275714;28;20036;-75
2022/03/28 05:54:29;;;;;;;13.68;8.77;;;;;;;3.18;100.00;101561.75;5272463;28;20424;-76
2022/03/28 05:56:59;;;;;;;14.43;8.90;;;;;;;3.17;100.00;101566.03;5271964;28;20036;-73
2022/03/28 05:59:30;;;;;;;17.92;8.90;;;;;;;3.42;100.00;101554.22;5278000;28;20115;-76
2022/03/28 06:02:00;;;;;;;21.95;10.45;;;;;;;3.38;100.00;101555.03;5275701;28;20038;-75
2022/03/28 06:04:30;;;;;;;23.67;11.02;;;;;;;3.54;100.00;101551.75;5278479;28;20029;-76
2022/03/28 06:07:01;;;;;;;23.50;11.27;;;;;;;3.36;100.00;101547.25;5276099;28;20061;-77
2022/03/28 06:09:31;;;;;;;27.95;12.65;;;;;;;3.28;100.00;101542.88;5273974;28;20032;-76
2022/03/28 06:12:01;;;;;;;36.63;13.40;;;;;;;3.81;100.00;101542.47;5278036;28;20055;-74
2022/03/28 06:14:32;;;;;;;28.58;13.00;;;;;;;4.58;100.00;101536.88;5276441;28;20035;-75
2022/03/28 06:17:02;;;;;;;32.50;14.40;;;;;;;4.05;100.00;101543.50;5278386;28;20031;-75
2022/03/28 06:19:32;;;;;;;34.75;15.45;;;;;;;3.78;100.00;101543.31;5276251;28;20052;-74
2022/03/28 06:22:03;;;;;;;32.45;15.10;;;;;;;3.90;100.00;101537.34;5278099;28;20442;-76
2022/03/28 06:24:33;;;;;;;37.90;15.73;;;;;;;4.58;100.00;101530.81;5270314;28;20291;-75
2022/03/28 06:27:03;;;;;;;30.73;14.52;;;;;;;5.09;100.00;101525.78;5271596;28;20043;-75
2022/03/28 06:29:34;;;;;;;28.15;13.07;;;;;;;4.82;100.00;101530.91;5270073;28;20031;-76
2022/03/28 06:32:04;;;;;;;28.20;13.25;;;;;;;4.91;100.00;101531.78;5275676;28;20036;-77
2022/03/28 06:34:34;;;;;;;38.53;15.15;;;;;;;5.14;100.00;101535.28;5279475;28;20108;-76
2022/03/28 06:37:05;;;;;;;42.13;14.85;;;;;;;5.27;100.00;101534.44;5274841;28;20153;-75
2022/03/28 06:39:36;;;;;;;51.63;15.80;;;;;;;5.44;100.00;101524.97;5273588;28;20019;-77
2022/03/28 06:42:07;;;;;;;46.00;16.88;;;;;;;5.58;100.00;101523.22;5279406;28;20098;-76
2022/03/28 06:44:38;;;;;;;47.60;17.67;;;;;;;5.88;100.00;101520.66;5272159;28;20513;-75
2022/03/28 06:47:08;;;;;;;51.65;16.73;;;;;;;6.04;100.00;101512.81;5279415;28;20189;-75
2022/03/28 06:49:39;;;;;;;52.38;17.52;;;;;;;5.64;100.00;101513.72;5276412;28;20473;-77
2022/03/28 06:52:09;;;;;;;47.55;17.33;;;;;;;5.71;100.00;101515.44;5278144;28;20087;-77
2022/03/28 06:54:40;;;;;;;46.78;17.45;;;;;;;6.00;100.00;101508.53;5273077;28;20037;-76
2022/03/28 06:57:11;;;;;;;55.80;18.42;;;;;;;5.92;100.00;101515.44;5268227;28;20024;-74
2022/03/28 06:59:41;;;;;;;48.75;18.65;;;;;;;6.29;100.00;101505.84;5273267;28;20469;-77
2022/03/28 07:02:11;;;;;;;47.10;17.85;;;;;;;6.08;100.00;101511.94;5275253;28;20043;-75
2022/03/28 07:04:41;;;;;;;48.72;19.50;;;;;;;5.72;100.00;101503.34;5279860;28;20069;-74
2022/03/28 07:07:12;;;;;;;54.90;19.52;;;;;;;6.03;100.00;101500.72;5275999;28;20035;-77
2022/03/28 07:09:42;;;;;;;49.15;19.48;;;;;;;6.26;100.00;101500.66;5254696;28;20035;-76
2022/03/28 07:12:12;;;;;;;61.90;19.95;;;;;;;6.20;100.00;101493.75;5273294;28;20031;-77
2022/03/28 07:14:43;;;;;;;55.90;19.27;;;;;;;6.52;100.00;101491.00;5275952;28;20107;-76
2022/03/28 07:17:13;;;;;;;50.05;18.73;;;;;;;6.90;100.00;101491.69;5275506;28;20035;-77
2022/03/28 07:19:43;;;;;;;52.15;19.50;;;;;;;6.92;100.00;101492.56;5278514;28;20028;-77
2022/03/28 07:22:13;;;;;;;51.50;18.55;;;;;;;6.62;100.00;101492.72;5275193;28;20084;-77
2022/03/28 07:24:44;;;;;;;55.22;19.58;;;;;;;6.22;100.00;101489.41;5271011;28;20423;-74
2022/03/28 07:27:14;;;;;;;48.70;18.33;;;;;;;6.43;100.00;101488.47;5264240;28;20337;-75
2022/03/28 07:29:44;;;;;;;55.65;19.00;;;;;;;6.81;100.00;101490.03;5272138;28;20031;-74
2022/03/28 07:32:15;;;;;;;43.70;16.42;;;;;;;7.10;100.00;101489.84;5277887;28;20028;-76
2022/03/28 07:34:46;;;;;;;36.95;16.13;;;;;;;7.17;100.00;101492.38;5275960;28;20051;-77
2022/03/28 07:37:17;;;;;;;33.75;14.32;;;;;;;7.20;100.00;101497.56;5277802;28;20035;-75
2022/03/28 07:39:47;;;;;;;29.63;13.80;;;;;;;6.94;100.00;101496.00;5276996;28;20378;-75
2022/03/28 07:42:17;;;;;;;35.50;14.55;;;;;;;7.18;100.00;101493.22;5274477;28;20384;-76
2022/03/28 07:44:48;;;;;;;31.73;14.02;;;;;;;7.13;100.00;101485.44;5276260;28;20023;-75
2022/03/28 07:47:18;;;;;;;31.40;13.95;;;;;;;7.33;100.00;101489.63;5270601;28;20032;-77
2022/03/28 07:49:49;;;;;;;31.20;14.23;;;;;;;7.48;100.00;101478.22;5269707;28;20336;-76
2022/03/28 07:52:20;;;;;;;36.83;13.93;;;;;;;7.91;100.00;101480.41;5276856;28;20315;-76
2022/03/28 07:54:51;;;;;;;29.85;13.90;;;;;;;8.18;100.00;101485.38;5277141;28;20043;-77
2022/03/28 07:57:21;;;;;;;31.17;13.70;;;;;;;8.11;100.00;101477.59;5271071;28;20036;-77
2022/03/28 07:59:52;;;;;;;29.83;12.25;;;;;;;8.30;100.00;101479.16;5270810;28;20028;-76
2022/03/28 08:02:24;;;;;;;25.15;12.18;;;;;;;8.40;100.00;101470.34;5276269;28;20031;-76
2022/03/28 08:04:54;;;;;;;30.08;11.93;;;;;;;8.53;100.00;101471.94;5277456;28;20022;-77
2022/03/28 08:07:24;;;;;;;27.80;11.98;;;;;;;8.81;100.00;101463.72;5269555;28;20024;-76
2022/03/28 08:09:54;;;;;;;28.05;11.38;;;;;;;8.45;100.00;101466.81;5268732;28;20024;-77
2022/03/28 08:12:25;;;;;;;24.98;11.38;;;;;;;8.78;96.54;101463.75;5276163;28;20028;-75
2022/03/28 08:14:56;;;;;;;23.80;11.30;;;;;;;9.55;95.50;101452.94;5268000;28;20028;-76
2022/03/28 08:17:26;;;;;;;29.35;11.77;;;;;;;10.22;93.17;101451.72;5267880;28;20028;-77
2022/03/28 08:19:57;;;;;;;24.23;11.18;;;;;;;10.09;92.17;101455.44;5270594;28;20031;-75
2022/03/28 08:22:27;;;;;;;25.42;10.75;;;;;;;10.28;91.04;101450.69;5275212;28;20509;-77
2022/03/28 08:24:57;;;;;;;29.45;11.07;;;;;;;10.61;87.60;101461.31;5278226;28;20081;-77
2022/03/28 08:27:27;;;;;;;21.73;10.50;;;;;;;10.70;88.06;101450.66;5273985;28;20024;-78
2022/03/28 08:29:58;;;;;;;28.92;11.80;;;;;;;10.56;86.89;101444.00;5277226;28;20140;-77
2022/03/28 08:32:28;;;;;;;26.55;11.65;;;;;;;10.85;87.08;101452.09;5277843;28;20026;-77
2022/03/28 08:34:58;;;;;;;20.55;11.35;;;;;;;11.16;85.62;101451.31;5274122;28;20089;-75
2022/03/28 08:37:29;;;;;;;22.27;10.35;;;;;;;10.78;85.77;101447.88;5277043;28;20039;-77
2022/03/28 08:40:00;;;;;;;20.20;10.27;;;;;;;11.59;82.87;101431.91;5272206;28;20473;-77
2022/03/28 08:42:33;;;;;;;18.77;9.88;;;;;;;11.96;81.07;101427.41;5275188;28;20032;-77
2022/03/28 08:45:03;;;;;;;16.63;8.60;;;;;;;12.14;79.36;101431.28;5271193;28;20023;-76
2022/03/28 08:47:37;;;;;;;17.75;9.30;;;;;;;12.20;80.24;101436.34;5260283;28;20019;-77
2022/03/28 08:50:10;;;;;;;21.33;9.90;;;;;;;11.96;80.57;101422.16;5274434;28;20028;-76
2022/03/28 08:52:41;;;;;;;19.70;9.85;;;;;;;12.26;77.48;101418.69;5272534;28;20077;-77
2022/03/28 08:55:14;;;;;;;18.17;9.98;;;;;;;11.21;80.43;101429.38;5271863;28;20034;-76
2022/03/28 08:57:44;;;;;;;21.40;10.18;;;;;;;11.16;83.46;101435.63;5269528;28;20031;-75
2022/03/28 09:00:15;;;;;;;18.08;9.80;;;;;;;10.87;85.39;101426.75;5270459;28;20036;-77
2022/03/28 09:02:49;;;;;;;18.92;9.05;;;;;;;12.09;80.65;101412.22;5272605;28;20032;-75
2022/03/28 09:05:29;;;;;;;21.48;9.30;;;;;;;12.41;78.04;101409.50;5280334;28;20027;-77
2022/03/28 09:08:00;;;;;;;17.38;8.60;;;;;;;11.63;80.60;101407.38;5279481;28;20649;-75
2022/03/28 09:10:32;;;;;;;19.58;9.68;;;;;;;11.05;82.55;101406.22;5280858;28;20108;-76
2022/03/28 09:13:11;;;;;;;22.15;9.35;;;;;;;12.88;78.23;101395.81;5279210;28;20027;-75
2022/03/28 09:15:53;;;;;;;19.05;9.57;;;;;;;12.35;77.30;101402.72;5275475;28;20220;-76
2022/03/28 09:18:28;;;;;;;18.15;9.43;;;;;;;11.97;79.76;101407.31;5273421;28;20183;-77
2022/03/28 09:21:02;;;;;;;23.73;9.65;;;;;;;13.21;75.68;101401.72;5279663;28;20350;-75
2022/03/28 09:23:44;;;;;;;20.35;10.15;;;;;;;13.64;73.50;101393.22;5280702;28;20060;-76
2022/03/28 09:26:20;;;;;;;17.63;9.75;;;;;;;12.93;75.15;101404.41;5274799;28;20052;-76
2022/03/28 09:28:54;;;;;;;20.55;10.43;;;;;;;13.01;75.83;101403.25;5280939;28;20073;-76
2022/03/28 09:31:30;;;;;;;19.73;10.18;;;;;;;12.54;76.75;101411.75;5278717;28;20298;-76
2022/03/28 09:34:03;;;;;;;22.02;10.18;;;;;;;11.54;80.85;101407.59;5277675;28;20024;-76
2022/03/28 09:36:41;;;;;;;24.77;11.10;;;;;;;10.92;83.39;101414.41;5261092;28;20027;-76
2022/03/28 09:39:29;;;;;;;24.70;12.25;;;;;;;11.32;83.65;101409.06;5252082;28;20112;-77
2022/03/28 09:42:10;;;;;;;24.58;12.20;;;;;;;10.91;83.72;101410.09;5278037;28;20515;-77
2022/03/28 09:44:48;;;;;;;30.33;13.40;;;;;;;11.56;82.27;101395.34;5254662;28;20197;-76
2022/03/28 09:47:21;;;;;;;32.22;14.88;;;;;;;11.57;82.60;101393.56;5273240;28;20028;-77
2022/03/28 09:49:54;;;;;;;31.05;15.65;;;;;;;11.23;83.73;101398.81;5271186;28;20024;-75
2022/03/28 09:52:28;;;;;;;35.28;17.23;;;;;;;11.30;84.07;101400.34;5278578;28;20042;-77
2022/03/28 09:55:04;;;;;;;33.75;16.38;;;;;;;11.48;80.54;101389.41;5270151;28;20028;-77
2022/03/28 09:57:35;;;;;;;30.42;14.35;;;;;;;11.05;81.84;101391.41;5265181;28;20031;-77
2022/03/28 10:00:12;;;;;;;34.15;14.93;;;;;;;11.19;81.40;101386.69;5276617;28;20051;-74
2022/03/28 10:02:43;;;;;;;26.90;13.63;;;;;;;10.67;83.56;101387.97;5269790;28;20486;-77
2022/03/28 10:05:14;;;;;;;27.60;14.05;;;;;;;10.96;83.28;101379.44;5271136;28;20043;-75
2022/03/28 10:07:46;;;;;;;28.90;13.25;;;;;;;11.07;82.34;101373.91;5280869;28;20031;-75
2022/03/28 10:10:16;;;;;;;30.73;13.85;;;;;;;10.68;82.56;101370.56;5275910;28;20027;-76
2022/03/28 10:12:47;;;;;;;31.00;14.02;;;;;;;10.81;83.88;101369.34;5279901;28;20027;-76
2022/03/28 10:15:18;;;;;;;30.23;12.77;;;;;;;10.41;85.74;101364.19;5278090;28;20477;-76
2022/03/28 10:17:49;;;;;;;25.17;12.98;;;;;;;10.83;84.13;101357.97;5276439;28;20043;-75
2022/03/28 10:20:19;;;;;;;24.52;11.88;;;;;;;10.88;85.25;101355.25;5277639;28;20031;-77
2022/03/28 10:22:53;;;;;;;24.20;12.65;;;;;;;11.05;85.53;101346.06;5276009;28;20039;-77
2022/03/28 10:25:25;;;;;;;26.98;13.35;;;;;;;11.10;84.92;101342.44;5268603;28;20277;-76
2022/03/28 10:27:55;;;;;;;29.95;14.20;;;;;;;11.09;83.92;101332.88;5267238;28;20500;-77
2022/03/28 10:30:28;;;;;;;32.13;15.63;;;;;;;10.78;83.73;101343.28;5275418;28;20190;-75
2022/03/28 10:33:16;;;;;;;33.72;15.05;;;;;;;10.69;85.96;101335.66;5280635;28;20382;-76
2022/03/28 10:36:01;;;;;;;29.60;15.15;;;;;;;11.10;83.95;101337.22;5273346;28;20083;-75
2022/03/28 10:38:32;;;;;;;33.78;15.40;;;;;;;10.96;83.90;101327.13;5275146;28;20267;-75
2022/03/28 10:41:07;;;;;;;30.65;14.68;;;;;;;11.04;84.58;101328.66;5279308;28;20028;-77
2022/03/28 10:43:39;;;;;;;26.45;13.23;;;;;;;11.00;83.06;101319.19;5273196;28;20024;-76
2022/03/28 10:46:11;;;;;;;34.35;14.10;;;;;;;11.07;85.35;101318.13;5297571;22;20477;-81
2022/03/28 10:48:53;;;;;;;21.83;11.32;;;;;;;11.06;82.97;101303.31;5271480;28;20490;-80
2022/03/28 10:51:29;;;;;;;27.65;12.90;;;;;;;11.38;82.89;101305.94;5271637;28;20035;-80
2022/03/28 10:54:01;;;;;;;;;;;;;;;11.29;82.77;101301.81;5274847;28;20477;-81
2022/03/28 10:56:42;;;;;;;21.60;10.75;;;;;;;11.35;83.14;101296.44;5260115;28;19912;-80
2022/03/28 10:59:22;;;;;;;20.55;9.77;;;;;;;11.53;81.29;101289.81;5255929;28;20501;-80
2022/03/28 11:01:53;;;;;;;22.77;9.88;;;;;;;11.56;82.17;101288.00;5250155;28;20474;-80
2022/03/28 11:04:23;;;;;;;27.90;9.90;;;;;;;11.62;82.68;101274.75;5254919;28;20032;-80
2022/03/28 11:07:03;;;;;;;21.67;10.15;;;;;;;11.54;82.56;101271.47;5253729;28;20271;-81
2022/03/28 11:09:48;;;;;;;19.83;9.00;;;;;;;11.57;82.64;101274.03;5256291;28;20103;-81
2022/03/28 11:12:20;;;;;;;18.38;8.73;;;;;;;11.69;82.00;101265.81;5254967;28;20061;-80
2022/03/28 11:14:50;;;;;;;28.58;11.35;;;;;;;11.69;83.50;101260.59;5253482;28;20028;-81
2022/03/28 11:17:31;;;;;;;19.83;9.17;;;;;;;11.71;83.06;101263.13;5254791;28;20039;-81
2022/03/28 11:20:08;;;;;;;19.67;8.73;;;;;;;11.92;83.25;101254.69;5251594;28;20397;-81
2022/03/28 11:22:40;;;;;;;16.40;8.18;;;;;;;12.11;81.62;101253.19;5253907;28;20420;-81
2022/03/28 11:25:38;;;;;;;16.48;7.55;;;;;;;12.13;82.05;101248.78;5234859;28;20043;-81
2022/03/28 11:28:15;;;;;;;15.52;8.25;;;;;;;12.11;82.40;101251.44;5254902;28;20012;-81
2022/03/28 11:30:48;;;;;;;17.88;8.38;;;;;;;12.15;82.86;101247.78;5246723;28;20390;-80
2022/03/28 11:33:21;;;;;;;19.50;8.35;;;;;;;12.25;82.34;101245.75;5251348;28;20025;-81